createdAt,value
2018-05-08T00:00:22.000Z,28
2018-05-08T00:01:22.000Z,28
2018-05-08T00:02:22.000Z,28
2018-05-08T00:04:22.000Z,28
2018-05-08T00:06:22.000Z,29
2018-05-08T00:07:22.000Z,29
2018-05-08T00:08:22.000Z,29
2018-05-08T00:09:22.000Z,29
2018-05-08T00:10:22.000Z,29
2018-05-08T00:12:22.000Z,29
2018-05-08T00:13:22.000Z,29
2018-05-08T00:14:22.000Z,29
2018-05-08T00:15:22.000Z,29
2018-05-08T00:16:22.000Z,29
2018-05-08T00:18:22.000Z,29
2018-05-08T00:19:22.000Z,29
2018-05-08T00:20:22.000Z,29
2018-05-08T00:21:22.000Z,29
2018-05-08T00:22:22.000Z,29
2018-05-08T00:24:22.000Z,29
2018-05-08T00:25:22.000Z,29
2018-05-08T00:26:22.000Z,29
2018-05-08T00:27:22.000Z,29
2018-05-08T00:28:22.000Z,29
2018-05-08T00:29:22.000Z,29
2018-05-08T00:30:22.000Z,29
2018-05-08T00:31:22.000Z,29
2018-05-08T00:32:22.000Z,29
2018-05-08T00:33:22.000Z,29
2018-05-08T00:34:22.000Z,29
2018-05-08T00:35:22.000Z,29
2018-05-08T00:36:22.000Z,29
2018-05-08T00:37:22.000Z,29
2018-05-08T00:38:22.000Z,29
2018-05-08T00:39:22.000Z,29
2018-05-08T00:40:22.000Z,29
2018-05-08T00:41:22.000Z,29
2018-05-08T00:42:22.000Z,29
2018-05-08T00:43:22.000Z,29
2018-05-08T00:44:22.000Z,29
2018-05-08T00:45:22.000Z,29
2018-05-08T00:46:22.000Z,29
2018-05-08T00:47:22.000Z,29
2018-05-08T00:48:22.000Z,28
2018-05-08T00:49:22.000Z,29
2018-05-08T00:50:22.000Z,29
2018-05-08T00:51:22.000Z,29
2018-05-08T00:52:22.000Z,28
2018-05-08T00:53:22.000Z,29
2018-05-08T00:54:22.000Z,28
2018-05-08T00:55:22.000Z,29
2018-05-08T00:56:22.000Z,29
2018-05-08T00:58:22.000Z,28
2018-05-08T00:59:22.000Z,29
2018-05-08T01:00:22.000Z,29
2018-05-08T01:01:22.000Z,29
2018-05-08T01:03:22.000Z,29
2018-05-08T01:04:22.000Z,29
2018-05-08T01:05:22.000Z,29
2018-05-08T01:06:22.000Z,29
2018-05-08T01:07:22.000Z,29
2018-05-08T01:08:22.000Z,29
2018-05-08T01:09:22.000Z,29
2018-05-08T01:10:22.000Z,29
2018-05-08T01:11:22.000Z,29
2018-05-08T01:12:22.000Z,29
2018-05-08T01:13:22.000Z,29
2018-05-08T01:14:22.000Z,29
2018-05-08T01:15:22.000Z,29
2018-05-08T01:17:22.000Z,29
2018-05-08T01:18:22.000Z,29
2018-05-08T01:19:22.000Z,29
2018-05-08T01:20:22.000Z,29
2018-05-08T01:21:22.000Z,29
2018-05-08T01:22:22.000Z,29
2018-05-08T01:23:22.000Z,29
2018-05-08T01:24:22.000Z,29
2018-05-08T01:25:22.000Z,29
2018-05-08T01:27:22.000Z,28
2018-05-08T01:28:22.000Z,29
2018-05-08T01:29:22.000Z,29
2018-05-08T01:30:22.000Z,29
2018-05-08T01:32:22.000Z,29
2018-05-08T01:34:22.000Z,29
2018-05-08T01:35:22.000Z,29
2018-05-08T01:36:22.000Z,29
2018-05-08T01:37:22.000Z,29
2018-05-08T01:38:22.000Z,29
2018-05-08T01:39:22.000Z,29
2018-05-08T01:40:22.000Z,29
2018-05-08T01:41:22.000Z,29
2018-05-08T01:42:22.000Z,29
2018-05-08T01:43:22.000Z,29
2018-05-08T01:44:22.000Z,29
2018-05-08T01:46:22.000Z,29
2018-05-08T01:47:22.000Z,29
2018-05-08T01:48:22.000Z,29
2018-05-08T01:50:22.000Z,29
2018-05-08T01:51:22.000Z,29
2018-05-08T01:52:22.000Z,29
2018-05-08T01:53:22.000Z,29
2018-05-08T01:54:22.000Z,29
2018-05-08T01:56:22.000Z,29
2018-05-08T01:58:22.000Z,29
2018-05-08T01:59:22.000Z,29
2018-05-08T02:00:22.000Z,29
2018-05-08T02:02:22.000Z,29
2018-05-08T02:03:22.000Z,29
2018-05-08T02:04:22.000Z,29
2018-05-08T02:05:22.000Z,29
2018-05-08T02:06:22.000Z,29
2018-05-08T02:07:22.000Z,29
2018-05-08T02:08:22.000Z,29
2018-05-08T02:10:22.000Z,29
2018-05-08T02:11:22.000Z,29
2018-05-08T02:12:22.000Z,29
2018-05-08T02:13:22.000Z,29
2018-05-08T02:14:22.000Z,29
2018-05-08T02:15:22.000Z,29
2018-05-08T02:16:22.000Z,29
2018-05-08T02:17:22.000Z,29
2018-05-08T02:19:22.000Z,29
2018-05-08T02:20:22.000Z,29
2018-05-08T02:21:22.000Z,29
2018-05-08T02:22:22.000Z,29
2018-05-08T02:23:22.000Z,29
2018-05-08T02:24:22.000Z,29
2018-05-08T02:25:22.000Z,29
2018-05-08T02:26:22.000Z,29
2018-05-08T02:27:22.000Z,29
2018-05-08T02:28:22.000Z,29
2018-05-08T02:29:22.000Z,29
2018-05-08T02:30:22.000Z,29
2018-05-08T02:31:22.000Z,29
2018-05-08T02:32:22.000Z,29
2018-05-08T02:33:22.000Z,29
2018-05-08T02:34:22.000Z,29
2018-05-08T02:35:22.000Z,29
2018-05-08T02:36:22.000Z,29
2018-05-08T02:37:22.000Z,29
2018-05-08T02:38:22.000Z,29
2018-05-08T02:40:22.000Z,29
2018-05-08T02:41:22.000Z,29
2018-05-08T02:42:22.000Z,29
2018-05-08T02:43:22.000Z,29
2018-05-08T02:44:22.000Z,29
2018-05-08T02:45:22.000Z,29
2018-05-08T02:46:22.000Z,29
2018-05-08T02:47:22.000Z,29
2018-05-08T02:48:22.000Z,29
2018-05-08T02:50:22.000Z,29
2018-05-08T02:51:22.000Z,29
2018-05-08T02:52:22.000Z,29
2018-05-08T02:53:22.000Z,29
2018-05-08T02:54:22.000Z,29
2018-05-08T02:55:22.000Z,29
2018-05-08T02:57:22.000Z,29
2018-05-08T02:58:22.000Z,29
2018-05-08T02:59:22.000Z,29
2018-05-08T03:00:22.000Z,29
2018-05-08T03:01:22.000Z,29
2018-05-08T03:03:22.000Z,29
2018-05-08T03:04:22.000Z,29
2018-05-08T03:05:22.000Z,29
2018-05-08T03:07:22.000Z,29
2018-05-08T03:08:22.000Z,29
2018-05-08T03:09:22.000Z,29
2018-05-08T03:10:22.000Z,29
2018-05-08T03:11:22.000Z,29
2018-05-08T03:12:22.000Z,29
2018-05-08T03:13:22.000Z,29
2018-05-08T03:14:22.000Z,29
2018-05-08T03:16:22.000Z,29
2018-05-08T03:17:22.000Z,29
2018-05-08T03:18:22.000Z,29
2018-05-08T03:19:22.000Z,29
2018-05-08T03:21:22.000Z,29
2018-05-08T03:22:22.000Z,29
2018-05-08T03:23:22.000Z,29
2018-05-08T03:24:22.000Z,29
2018-05-08T03:25:22.000Z,29
2018-05-08T03:26:22.000Z,29
2018-05-08T03:27:22.000Z,29
2018-05-08T03:28:22.000Z,29
2018-05-08T03:29:22.000Z,29
2018-05-08T03:30:22.000Z,29
2018-05-08T03:31:22.000Z,29
2018-05-08T03:32:22.000Z,29
2018-05-08T03:33:22.000Z,29
2018-05-08T03:34:22.000Z,29
2018-05-08T03:35:22.000Z,29
2018-05-08T03:36:22.000Z,29
2018-05-08T03:38:22.000Z,29
2018-05-08T03:39:22.000Z,29
2018-05-08T03:40:22.000Z,29
2018-05-08T03:41:22.000Z,29
2018-05-08T03:42:22.000Z,29
2018-05-08T03:43:22.000Z,29
2018-05-08T03:44:22.000Z,29
2018-05-08T03:45:22.000Z,29
2018-05-08T03:46:22.000Z,29
2018-05-08T03:48:22.000Z,29
2018-05-08T03:49:22.000Z,29
2018-05-08T03:50:22.000Z,29
2018-05-08T03:51:22.000Z,29
2018-05-08T03:52:22.000Z,29
2018-05-08T03:53:22.000Z,29
2018-05-08T03:54:22.000Z,29
2018-05-08T03:55:22.000Z,29
2018-05-08T03:56:22.000Z,29
2018-05-08T03:58:22.000Z,29
2018-05-08T04:00:22.000Z,29
2018-05-08T04:01:22.000Z,29
2018-05-08T04:02:22.000Z,29
2018-05-08T04:03:22.000Z,29
2018-05-08T04:04:22.000Z,29
2018-05-08T04:06:22.000Z,29
2018-05-08T04:07:22.000Z,29
2018-05-08T04:08:22.000Z,29
2018-05-08T04:09:22.000Z,29
2018-05-08T04:10:22.000Z,29
2018-05-08T04:11:22.000Z,29
2018-05-08T04:12:22.000Z,29
2018-05-08T04:14:22.000Z,29
2018-05-08T04:15:22.000Z,29
2018-05-08T04:16:22.000Z,29
2018-05-08T04:17:22.000Z,29
2018-05-08T04:18:22.000Z,29
2018-05-08T04:20:22.000Z,29
2018-05-08T04:21:22.000Z,29
2018-05-08T04:22:22.000Z,29
2018-05-08T04:23:22.000Z,29
2018-05-08T04:24:22.000Z,29
2018-05-08T04:25:22.000Z,29
2018-05-08T04:26:22.000Z,29
2018-05-08T04:27:22.000Z,29
2018-05-08T04:28:22.000Z,29
2018-05-08T04:29:22.000Z,29
2018-05-08T04:30:22.000Z,29
2018-05-08T04:31:22.000Z,29
2018-05-08T04:32:22.000Z,29
2018-05-08T04:33:22.000Z,29
2018-05-08T04:35:22.000Z,29
2018-05-08T04:36:22.000Z,29
2018-05-08T04:37:22.000Z,29
2018-05-08T04:39:22.000Z,29
2018-05-08T04:40:23.000Z,29
2018-05-08T04:42:23.000Z,29
2018-05-08T04:43:23.000Z,29
2018-05-08T04:44:23.000Z,29
2018-05-08T04:45:23.000Z,29
2018-05-08T04:46:23.000Z,29
2018-05-08T04:47:23.000Z,29
2018-05-08T04:48:23.000Z,29
2018-05-08T04:49:23.000Z,29
2018-05-08T04:50:23.000Z,29
2018-05-08T04:51:23.000Z,29
2018-05-08T04:52:23.000Z,29
2018-05-08T04:54:23.000Z,29
2018-05-08T04:55:23.000Z,29
2018-05-08T04:56:23.000Z,29
2018-05-08T04:57:23.000Z,29
2018-05-08T04:58:23.000Z,29
2018-05-08T04:59:23.000Z,29
2018-05-08T05:00:23.000Z,29
2018-05-08T05:01:23.000Z,29
2018-05-08T05:02:23.000Z,29
2018-05-08T05:03:23.000Z,29
2018-05-08T05:05:23.000Z,28
2018-05-08T05:06:23.000Z,28
2018-05-08T05:07:23.000Z,29
2018-05-08T05:08:23.000Z,28
2018-05-08T05:09:23.000Z,29
2018-05-08T05:10:23.000Z,28
2018-05-08T05:11:23.000Z,29
2018-05-08T05:12:23.000Z,29
2018-05-08T05:14:23.000Z,28
2018-05-08T05:15:23.000Z,28
2018-05-08T05:16:23.000Z,28
2018-05-08T05:17:23.000Z,28
2018-05-08T05:18:23.000Z,29
2018-05-08T05:19:23.000Z,29
2018-05-08T05:20:23.000Z,28
2018-05-08T05:21:23.000Z,29
2018-05-08T05:22:23.000Z,28
2018-05-08T05:23:23.000Z,28
2018-05-08T05:25:23.000Z,29
2018-05-08T05:26:23.000Z,29
2018-05-08T05:27:23.000Z,28
2018-05-08T05:28:23.000Z,28
2018-05-08T05:29:23.000Z,28
2018-05-08T05:30:23.000Z,28
2018-05-08T05:31:23.000Z,28
2018-05-08T05:32:23.000Z,28
2018-05-08T05:33:23.000Z,28
2018-05-08T05:34:23.000Z,28
2018-05-08T05:35:23.000Z,28
2018-05-08T05:36:23.000Z,28
2018-05-08T05:37:23.000Z,28
2018-05-08T05:38:23.000Z,28
2018-05-08T05:39:23.000Z,28
2018-05-08T05:40:23.000Z,28
2018-05-08T05:41:23.000Z,28
2018-05-08T05:42:23.000Z,28
2018-05-08T05:43:23.000Z,28
2018-05-08T05:44:23.000Z,28
2018-05-08T05:45:23.000Z,28
2018-05-08T05:46:23.000Z,28
2018-05-08T05:47:23.000Z,28
2018-05-08T05:48:23.000Z,28
2018-05-08T05:50:23.000Z,28
2018-05-08T05:51:23.000Z,28
2018-05-08T05:52:23.000Z,28
2018-05-08T05:53:23.000Z,28
2018-05-08T05:54:23.000Z,28
2018-05-08T05:55:23.000Z,28
2018-05-08T05:56:23.000Z,28
2018-05-08T05:57:23.000Z,28
2018-05-08T05:58:23.000Z,28
2018-05-08T05:59:23.000Z,28
2018-05-08T06:00:23.000Z,28
2018-05-08T06:01:23.000Z,28
2018-05-08T06:02:23.000Z,28
2018-05-08T06:03:23.000Z,29
2018-05-08T06:04:23.000Z,29
2018-05-08T06:05:23.000Z,29
2018-05-08T06:06:23.000Z,29
2018-05-08T06:08:23.000Z,29
2018-05-08T06:09:23.000Z,30
2018-05-08T06:10:23.000Z,30
2018-05-08T06:11:23.000Z,30
2018-05-08T06:12:23.000Z,30
2018-05-08T06:13:23.000Z,30
2018-05-08T06:14:23.000Z,30
2018-05-08T06:15:23.000Z,30
2018-05-08T06:16:23.000Z,30
2018-05-08T06:17:23.000Z,30
2018-05-08T06:18:23.000Z,30
2018-05-08T06:19:23.000Z,30
2018-05-08T06:20:23.000Z,30
2018-05-08T06:21:23.000Z,30
2018-05-08T06:22:23.000Z,31
2018-05-08T06:23:23.000Z,31
2018-05-08T06:24:23.000Z,31
2018-05-08T06:25:23.000Z,31
2018-05-08T06:26:23.000Z,31
2018-05-08T06:27:23.000Z,31
2018-05-08T06:28:23.000Z,30
2018-05-08T06:29:23.000Z,31
2018-05-08T06:30:23.000Z,31
2018-05-08T06:31:23.000Z,31
2018-05-08T06:32:23.000Z,30
2018-05-08T06:33:23.000Z,30
2018-05-08T06:34:23.000Z,30
2018-05-08T06:35:23.000Z,30
2018-05-08T06:36:23.000Z,31
2018-05-08T06:37:23.000Z,30
2018-05-08T06:38:23.000Z,30
2018-05-08T06:40:23.000Z,30
2018-05-08T06:41:23.000Z,30
2018-05-08T06:42:23.000Z,30
2018-05-08T06:43:23.000Z,30
2018-05-08T06:44:23.000Z,30
2018-05-08T06:45:23.000Z,30
2018-05-08T06:46:23.000Z,30
2018-05-08T06:47:22.000Z,30
2018-05-08T06:48:22.000Z,30
2018-05-08T06:50:22.000Z,30
2018-05-08T06:51:22.000Z,30
2018-05-08T06:52:22.000Z,30
2018-05-08T06:53:22.000Z,30
2018-05-08T06:54:22.000Z,30
2018-05-08T06:55:22.000Z,30
2018-05-08T06:57:22.000Z,30
2018-05-08T06:58:22.000Z,30
2018-05-08T06:59:22.000Z,30
2018-05-08T07:00:22.000Z,30
2018-05-08T07:01:22.000Z,30
2018-05-08T07:02:22.000Z,30
2018-05-08T07:03:22.000Z,30
2018-05-08T07:04:22.000Z,30
2018-05-08T07:05:22.000Z,30
2018-05-08T07:06:22.000Z,30
2018-05-08T07:07:22.000Z,29
2018-05-08T07:08:22.000Z,29
2018-05-08T07:09:22.000Z,29
2018-05-08T07:10:22.000Z,29
2018-05-08T07:11:22.000Z,29
2018-05-08T07:12:22.000Z,29
2018-05-08T07:13:22.000Z,29
2018-05-08T07:15:22.000Z,29
2018-05-08T07:16:22.000Z,29
2018-05-08T07:17:22.000Z,29
2018-05-08T07:18:22.000Z,29
2018-05-08T07:19:22.000Z,28
2018-05-08T07:21:22.000Z,28
2018-05-08T07:22:22.000Z,28
2018-05-08T07:23:22.000Z,28
2018-05-08T07:24:22.000Z,28
2018-05-08T07:25:22.000Z,28
2018-05-08T07:26:22.000Z,28
2018-05-08T07:27:22.000Z,28
2018-05-08T07:28:22.000Z,28
2018-05-08T07:29:22.000Z,28
2018-05-08T07:30:22.000Z,28
2018-05-08T07:31:22.000Z,28
2018-05-08T07:33:22.000Z,27
2018-05-08T07:34:22.000Z,28
2018-05-08T07:35:22.000Z,28
2018-05-08T07:36:22.000Z,27
2018-05-08T07:37:22.000Z,27
2018-05-08T07:38:22.000Z,27
2018-05-08T07:39:22.000Z,27
2018-05-08T07:40:22.000Z,27
2018-05-08T07:41:22.000Z,27
2018-05-08T07:42:22.000Z,27
2018-05-08T07:43:22.000Z,27
2018-05-08T07:45:22.000Z,27
2018-05-08T07:46:22.000Z,27
2018-05-08T07:47:22.000Z,27
2018-05-08T07:48:22.000Z,27
2018-05-08T07:49:22.000Z,27
2018-05-08T07:50:22.000Z,27
2018-05-08T07:51:23.000Z,27
2018-05-08T07:52:23.000Z,27
2018-05-08T07:53:23.000Z,26
2018-05-08T07:54:23.000Z,26
2018-05-08T07:55:23.000Z,26
2018-05-08T07:56:23.000Z,26
2018-05-08T07:57:23.000Z,26
2018-05-08T07:58:23.000Z,26
2018-05-08T07:59:23.000Z,26
2018-05-08T08:00:23.000Z,26
2018-05-08T08:01:23.000Z,26
2018-05-08T08:02:23.000Z,26
2018-05-08T08:04:23.000Z,26
2018-05-08T08:06:23.000Z,26
2018-05-08T08:07:23.000Z,26
2018-05-08T08:08:23.000Z,26
2018-05-08T08:09:23.000Z,26
2018-05-08T08:10:23.000Z,26
2018-05-08T08:12:23.000Z,26
2018-05-08T08:13:23.000Z,27
2018-05-08T08:14:23.000Z,26
2018-05-08T08:15:23.000Z,26
2018-05-08T08:16:23.000Z,27
2018-05-08T08:17:23.000Z,26
2018-05-08T08:18:23.000Z,26
2018-05-08T08:19:23.000Z,27
2018-05-08T08:21:23.000Z,26
2018-05-08T08:22:23.000Z,26
2018-05-08T08:23:23.000Z,26
2018-05-08T08:25:23.000Z,26
2018-05-08T08:26:23.000Z,26
2018-05-08T08:27:23.000Z,27
2018-05-08T08:29:23.000Z,27
2018-05-08T08:30:23.000Z,27
2018-05-08T08:31:23.000Z,27
2018-05-08T08:32:23.000Z,27
2018-05-08T08:33:23.000Z,27
2018-05-08T08:35:23.000Z,27
2018-05-08T08:36:23.000Z,27
2018-05-08T08:37:23.000Z,27
2018-05-08T08:38:23.000Z,27
2018-05-08T08:39:23.000Z,27
2018-05-08T08:40:23.000Z,27
2018-05-08T08:41:23.000Z,27
2018-05-08T08:42:23.000Z,27
2018-05-08T08:44:23.000Z,27
2018-05-08T08:45:23.000Z,27
2018-05-08T08:46:23.000Z,27
2018-05-08T08:47:23.000Z,27
2018-05-08T08:49:23.000Z,28
2018-05-08T08:50:23.000Z,28
2018-05-08T08:51:23.000Z,28
2018-05-08T08:52:23.000Z,28
2018-05-08T08:53:23.000Z,28
2018-05-08T08:54:23.000Z,28
2018-05-08T08:55:23.000Z,28
2018-05-08T08:56:23.000Z,28
2018-05-08T08:57:23.000Z,28
2018-05-08T08:58:23.000Z,28
2018-05-08T09:00:23.000Z,28
2018-05-08T09:01:23.000Z,28
2018-05-08T09:02:23.000Z,28
2018-05-08T09:03:23.000Z,28
2018-05-08T09:04:23.000Z,28
2018-05-08T09:05:23.000Z,28
2018-05-08T09:06:23.000Z,28
2018-05-08T09:07:23.000Z,28
2018-05-08T09:08:23.000Z,28
2018-05-08T09:09:23.000Z,28
2018-05-08T09:10:23.000Z,28
2018-05-08T09:11:23.000Z,28
2018-05-08T09:12:23.000Z,28
2018-05-08T09:13:23.000Z,28
2018-05-08T09:14:23.000Z,29
2018-05-08T09:15:23.000Z,29
2018-05-08T09:16:23.000Z,29
2018-05-08T09:17:23.000Z,29
2018-05-08T09:18:23.000Z,29
2018-05-08T09:19:23.000Z,29
2018-05-08T09:20:23.000Z,29
2018-05-08T09:21:23.000Z,29
2018-05-08T09:22:23.000Z,29
2018-05-08T09:23:23.000Z,29
2018-05-08T09:24:23.000Z,29
2018-05-08T09:26:23.000Z,29
2018-05-08T09:27:23.000Z,29
2018-05-08T09:28:23.000Z,29
2018-05-08T09:29:23.000Z,29
2018-05-08T09:30:23.000Z,29
2018-05-08T09:31:23.000Z,29
2018-05-08T09:32:23.000Z,29
2018-05-08T09:33:23.000Z,29
2018-05-08T09:34:23.000Z,29
2018-05-08T09:35:23.000Z,29
2018-05-08T09:36:23.000Z,29
2018-05-08T09:37:23.000Z,29
2018-05-08T09:38:23.000Z,30
2018-05-08T09:39:23.000Z,29
2018-05-08T09:40:23.000Z,29
2018-05-08T09:41:23.000Z,30
2018-05-08T09:42:23.000Z,29
2018-05-08T09:44:23.000Z,29
2018-05-08T09:45:23.000Z,29
2018-05-08T09:46:23.000Z,30
2018-05-08T09:48:23.000Z,29
2018-05-08T09:49:23.000Z,30
2018-05-08T09:50:23.000Z,29
2018-05-08T09:51:23.000Z,30
2018-05-08T09:52:23.000Z,29
2018-05-08T09:53:23.000Z,30
2018-05-08T09:54:23.000Z,29
2018-05-08T09:55:23.000Z,30
2018-05-08T09:56:23.000Z,30
2018-05-08T09:57:23.000Z,29
2018-05-08T09:58:22.000Z,30
2018-05-08T09:59:22.000Z,29
2018-05-08T10:00:22.000Z,29
2018-05-08T10:01:22.000Z,29
2018-05-08T10:02:22.000Z,29
2018-05-08T10:04:22.000Z,29
2018-05-08T10:05:22.000Z,29
2018-05-08T10:06:22.000Z,29
2018-05-08T10:07:22.000Z,29
2018-05-08T10:09:22.000Z,29
2018-05-08T10:10:22.000Z,29
2018-05-08T10:11:22.000Z,29
2018-05-08T10:12:22.000Z,29
2018-05-08T10:13:22.000Z,29
2018-05-08T10:15:22.000Z,29
2018-05-08T10:16:22.000Z,29
2018-05-08T10:17:22.000Z,29
2018-05-08T10:18:22.000Z,29
2018-05-08T10:19:22.000Z,29
2018-05-08T10:20:22.000Z,29
2018-05-08T10:21:22.000Z,29
2018-05-08T10:22:22.000Z,29
2018-05-08T10:23:22.000Z,29
2018-05-08T10:24:22.000Z,29
2018-05-08T10:25:22.000Z,29
2018-05-08T10:26:22.000Z,28
2018-05-08T10:27:22.000Z,28
2018-05-08T10:29:22.000Z,28
2018-05-08T10:30:22.000Z,28
2018-05-08T10:31:22.000Z,28
2018-05-08T10:32:22.000Z,28
2018-05-08T10:33:22.000Z,28
2018-05-08T10:35:22.000Z,27
2018-05-08T10:36:22.000Z,27
2018-05-08T10:37:22.000Z,27
2018-05-08T10:38:22.000Z,27
2018-05-08T10:40:22.000Z,27
2018-05-08T10:41:22.000Z,27
2018-05-08T10:42:22.000Z,27
2018-05-08T10:43:22.000Z,27
2018-05-08T10:45:22.000Z,26
2018-05-08T10:46:22.000Z,26
2018-05-08T10:47:22.000Z,26
2018-05-08T10:48:22.000Z,26
2018-05-08T10:49:22.000Z,26
2018-05-08T10:50:22.000Z,26
2018-05-08T10:54:08.000Z,26
2018-05-08T10:55:08.000Z,26
2018-05-08T10:56:08.000Z,26
2018-05-08T10:57:08.000Z,26
2018-05-08T10:58:08.000Z,26
2018-05-08T10:59:08.000Z,26
2018-05-08T11:00:08.000Z,26
2018-05-08T11:01:08.000Z,26
2018-05-08T11:02:08.000Z,26
2018-05-08T11:03:08.000Z,26
2018-05-08T11:04:08.000Z,26
2018-05-08T11:05:08.000Z,26
2018-05-08T11:06:08.000Z,26
2018-05-08T11:07:08.000Z,26
2018-05-08T11:08:08.000Z,26
2018-05-08T11:09:08.000Z,26
2018-05-08T11:10:08.000Z,26
2018-05-08T11:11:08.000Z,26
2018-05-08T11:12:08.000Z,26
2018-05-08T11:13:08.000Z,26
2018-05-08T11:14:08.000Z,26
2018-05-08T11:15:08.000Z,26
2018-05-08T11:16:08.000Z,26
2018-05-08T11:17:08.000Z,27
2018-05-08T11:19:08.000Z,26
2018-05-08T11:20:08.000Z,27
2018-05-08T11:21:08.000Z,27
2018-05-08T11:22:08.000Z,27
2018-05-08T11:24:08.000Z,26
2018-05-08T11:25:08.000Z,27
2018-05-08T11:26:08.000Z,27
2018-05-08T11:27:08.000Z,26
2018-05-08T11:29:08.000Z,26
2018-05-08T11:31:08.000Z,26
2018-05-08T11:33:08.000Z,26
2018-05-08T11:34:08.000Z,27
2018-05-08T11:35:08.000Z,26
2018-05-08T11:36:08.000Z,27
2018-05-08T11:37:08.000Z,26
2018-05-08T11:38:08.000Z,26
2018-05-08T11:39:08.000Z,26
2018-05-08T11:40:08.000Z,26
2018-05-08T11:41:08.000Z,26
2018-05-08T11:42:08.000Z,26
2018-05-08T11:43:08.000Z,26
2018-05-08T11:44:08.000Z,26
2018-05-08T11:45:08.000Z,26
2018-05-08T11:46:08.000Z,26
2018-05-08T11:47:08.000Z,26
2018-05-08T11:48:08.000Z,26
2018-05-08T11:49:08.000Z,26
2018-05-08T11:50:08.000Z,26
2018-05-08T11:51:08.000Z,26
2018-05-08T11:52:08.000Z,26
2018-05-08T11:53:08.000Z,26
2018-05-08T11:54:08.000Z,26
2018-05-08T11:55:08.000Z,26
2018-05-08T11:56:08.000Z,25
2018-05-08T11:58:08.000Z,25
2018-05-08T11:59:08.000Z,25
2018-05-08T12:01:08.000Z,25
2018-05-08T12:02:08.000Z,25
2018-05-08T12:04:08.000Z,25
2018-05-08T12:06:09.000Z,25
2018-05-08T12:07:09.000Z,25
2018-05-08T12:08:09.000Z,25
2018-05-08T12:09:09.000Z,25
2018-05-08T12:10:09.000Z,25
2018-05-08T12:11:09.000Z,25
2018-05-08T12:12:09.000Z,25
2018-05-08T12:13:09.000Z,25
2018-05-08T12:14:09.000Z,25
2018-05-08T12:15:09.000Z,25
2018-05-08T12:16:09.000Z,25
2018-05-08T12:17:09.000Z,25
2018-05-08T12:18:09.000Z,25
2018-05-08T12:20:09.000Z,25
2018-05-08T12:21:09.000Z,25
2018-05-08T12:22:09.000Z,25
2018-05-08T12:23:09.000Z,25
2018-05-08T12:24:09.000Z,25
2018-05-08T12:25:09.000Z,25
2018-05-08T12:26:09.000Z,25
2018-05-08T12:27:09.000Z,25
2018-05-08T12:28:09.000Z,25
2018-05-08T12:29:09.000Z,25
2018-05-08T12:30:09.000Z,25
2018-05-08T12:32:09.000Z,24
2018-05-08T12:33:09.000Z,25
2018-05-08T12:35:09.000Z,25
2018-05-08T12:36:09.000Z,25
2018-05-08T12:38:09.000Z,25
2018-05-08T12:39:09.000Z,25
2018-05-08T12:40:09.000Z,25
2018-05-08T12:41:09.000Z,25
2018-05-08T12:42:09.000Z,25
2018-05-08T12:43:09.000Z,25
2018-05-08T12:44:09.000Z,25
2018-05-08T12:45:09.000Z,25
2018-05-08T12:46:09.000Z,25
2018-05-08T12:48:09.000Z,24
2018-05-08T12:49:09.000Z,24
2018-05-08T12:50:09.000Z,24
2018-05-08T12:51:09.000Z,24
2018-05-08T12:52:09.000Z,24
2018-05-08T12:53:09.000Z,24
2018-05-08T12:54:09.000Z,24
2018-05-08T12:55:09.000Z,24
2018-05-08T12:56:09.000Z,24
2018-05-08T12:57:09.000Z,24
2018-05-08T12:58:09.000Z,24
2018-05-08T12:59:09.000Z,24
2018-05-08T13:00:09.000Z,24
2018-05-08T13:01:09.000Z,24
2018-05-08T13:02:09.000Z,24
2018-05-08T13:04:09.000Z,24
2018-05-08T13:06:09.000Z,24
2018-05-08T13:07:09.000Z,24
2018-05-08T13:08:09.000Z,24
2018-05-08T13:09:09.000Z,24
2018-05-08T13:10:09.000Z,24
2018-05-08T13:11:09.000Z,24
2018-05-08T13:12:09.000Z,24
2018-05-08T13:13:09.000Z,24
2018-05-08T13:14:09.000Z,24
2018-05-08T13:15:09.000Z,24
2018-05-08T13:16:09.000Z,24
2018-05-08T13:18:09.000Z,24
2018-05-08T13:20:09.000Z,24
2018-05-08T13:21:09.000Z,24
2018-05-08T13:22:09.000Z,24
2018-05-08T13:23:09.000Z,24
2018-05-08T13:24:09.000Z,24
2018-05-08T13:25:09.000Z,24
2018-05-08T13:26:09.000Z,24
2018-05-08T13:27:09.000Z,24
2018-05-08T13:28:09.000Z,24
2018-05-08T13:29:09.000Z,24
2018-05-08T13:30:09.000Z,24
2018-05-08T13:31:09.000Z,24
2018-05-08T13:32:09.000Z,24
2018-05-08T13:33:09.000Z,24
2018-05-08T13:35:09.000Z,24
2018-05-08T13:37:09.000Z,24
2018-05-08T13:39:09.000Z,24
2018-05-08T13:40:09.000Z,25
2018-05-08T13:41:09.000Z,25
2018-05-08T13:42:09.000Z,24
2018-05-08T13:43:09.000Z,25
2018-05-08T13:44:09.000Z,24
2018-05-08T13:45:09.000Z,25
2018-05-08T13:46:09.000Z,24
2018-05-08T13:47:09.000Z,24
2018-05-08T13:48:09.000Z,24
2018-05-08T13:49:09.000Z,24
2018-05-08T13:50:09.000Z,24
2018-05-08T13:52:09.000Z,24
2018-05-08T13:53:09.000Z,24
2018-05-08T13:54:09.000Z,24
2018-05-08T13:55:09.000Z,24
2018-05-08T13:56:09.000Z,24
2018-05-08T13:57:09.000Z,24
2018-05-08T13:58:09.000Z,24
2018-05-08T13:59:09.000Z,24
2018-05-08T14:00:09.000Z,24
2018-05-08T14:01:09.000Z,24
2018-05-08T14:02:09.000Z,25
2018-05-08T14:03:09.000Z,24
2018-05-08T14:04:09.000Z,25
2018-05-08T14:05:09.000Z,25
2018-05-08T14:06:09.000Z,25
2018-05-08T14:07:09.000Z,25
2018-05-08T14:09:09.000Z,25
2018-05-08T14:11:09.000Z,25
2018-05-08T14:12:08.000Z,25
2018-05-08T14:13:08.000Z,25
2018-05-08T14:15:08.000Z,25
2018-05-08T14:16:08.000Z,25
2018-05-08T14:17:08.000Z,25
2018-05-08T14:18:08.000Z,25
2018-05-08T14:19:08.000Z,25
2018-05-08T14:20:08.000Z,25
2018-05-08T14:21:08.000Z,25
2018-05-08T14:22:08.000Z,25
2018-05-08T14:23:08.000Z,25
2018-05-08T14:24:08.000Z,25
2018-05-08T14:25:08.000Z,25
2018-05-08T14:26:08.000Z,25
2018-05-08T14:27:08.000Z,25
2018-05-08T14:28:08.000Z,25
2018-05-08T14:29:08.000Z,25
2018-05-08T14:30:08.000Z,25
2018-05-08T14:31:08.000Z,25
2018-05-08T14:33:08.000Z,25
2018-05-08T14:34:08.000Z,25
2018-05-08T14:35:08.000Z,25
2018-05-08T14:36:08.000Z,25
2018-05-08T14:37:08.000Z,25
2018-05-08T14:38:08.000Z,25
2018-05-08T14:39:08.000Z,25
2018-05-08T14:40:08.000Z,25
2018-05-08T14:41:08.000Z,25
2018-05-08T14:42:08.000Z,25
2018-05-08T14:43:08.000Z,25
2018-05-08T14:44:08.000Z,25
2018-05-08T14:45:08.000Z,25
2018-05-08T14:46:08.000Z,25
2018-05-08T14:47:08.000Z,25
2018-05-08T14:49:08.000Z,25
2018-05-08T14:50:08.000Z,25
2018-05-08T14:51:08.000Z,25
2018-05-08T14:52:08.000Z,25
2018-05-08T14:53:08.000Z,25
2018-05-08T14:54:08.000Z,25
2018-05-08T14:55:08.000Z,25
2018-05-08T14:56:08.000Z,25
2018-05-08T14:57:08.000Z,25
2018-05-08T14:58:08.000Z,25
2018-05-08T14:59:08.000Z,25
2018-05-08T15:01:08.000Z,25
2018-05-08T15:02:08.000Z,25
2018-05-08T15:03:08.000Z,25
2018-05-08T15:04:08.000Z,25
2018-05-08T15:05:08.000Z,25
2018-05-08T15:06:08.000Z,25
2018-05-08T15:07:08.000Z,25
2018-05-08T15:08:08.000Z,25
2018-05-08T15:10:08.000Z,25
2018-05-08T15:11:08.000Z,25
2018-05-08T15:12:08.000Z,25
2018-05-08T15:13:08.000Z,25
2018-05-08T15:14:08.000Z,25
2018-05-08T15:15:08.000Z,25
2018-05-08T15:16:09.000Z,25
2018-05-08T15:17:09.000Z,26
2018-05-08T15:18:09.000Z,25
2018-05-08T15:19:09.000Z,26
2018-05-08T15:20:09.000Z,25
2018-05-08T15:21:09.000Z,26
2018-05-08T15:22:09.000Z,25
2018-05-08T15:23:09.000Z,26
2018-05-08T15:25:09.000Z,25
2018-05-08T15:26:09.000Z,26
2018-05-08T15:27:09.000Z,26
2018-05-08T15:28:09.000Z,26
2018-05-08T15:29:09.000Z,26
2018-05-08T15:30:09.000Z,26
2018-05-08T15:31:09.000Z,26
2018-05-08T15:32:09.000Z,26
2018-05-08T15:33:09.000Z,26
2018-05-08T15:34:09.000Z,26
2018-05-08T15:35:09.000Z,26
2018-05-08T15:36:09.000Z,26
2018-05-08T15:37:09.000Z,26
2018-05-08T15:38:09.000Z,26
2018-05-08T15:39:09.000Z,26
2018-05-08T15:40:09.000Z,26
2018-05-08T15:41:09.000Z,26
2018-05-08T15:42:09.000Z,26
2018-05-08T15:44:09.000Z,26
2018-05-08T15:45:09.000Z,26
2018-05-08T15:46:09.000Z,26
2018-05-08T15:47:09.000Z,26
2018-05-08T15:48:09.000Z,26
2018-05-08T15:49:09.000Z,26
2018-05-08T15:50:09.000Z,26
2018-05-08T15:51:09.000Z,26
2018-05-08T15:52:09.000Z,26
2018-05-08T15:53:09.000Z,26
2018-05-08T15:54:09.000Z,26
2018-05-08T15:55:09.000Z,26
2018-05-08T15:56:09.000Z,26
2018-05-08T15:57:09.000Z,26